Time;durP1;ratioP1;P1;durP2;ratioP2;P2;SDS_P1;SDS_P2;PMS_P1;PMS_P2;Temp;Humidity;BMP_temperature;BMP_pressure;BME280_temperature;BME280_humidity;BME280_pressure;Samples;Min_cycle;Max_cycle;Signal;HPM_P1;HPM_P2
2023/03/04 00:00:35;;;;;;;42.53;30.52;;;;;;;5.50;100.00;100344.34;5032657;28;20033;-79
2023/03/04 00:03:01;;;;;;;34.97;25.25;;;;;;;5.96;100.00;100398.91;5032733;28;20033;-80
2023/03/04 00:05:26;;;;;;;31.75;23.85;;;;;;;5.38;100.00;100328.38;5032912;28;20021;-81
2023/03/04 00:07:52;;;;;;;33.22;22.45;;;;;;;5.59;100.00;100329.19;5033935;28;20407;-79
2023/03/04 00:10:17;;;;;;;30.90;22.50;;;;;;;5.48;100.00;100320.81;5032238;28;20034;-81
2023/03/04 00:12:42;;;;;;;29.05;22.08;;;;;;;5.68;100.00;100372.03;5033128;28;20034;-80
2023/03/04 00:15:08;;;;;;;31.13;22.90;;;;;;;5.19;100.00;100305.72;5032340;28;20033;-81
2023/03/04 00:17:34;;;;;;;32.17;21.65;;;;;;;5.83;100.00;100371.16;5032574;28;20036;-82
2023/03/04 00:19:59;;;;;;;30.08;23.13;;;;;;;5.28;100.00;100280.53;5032399;28;20132;-81
2023/03/04 00:22:24;;;;;;;33.25;24.23;;;;;;;5.36;100.00;100314.94;5033251;28;20533;-82
2023/03/04 00:24:50;;;;;;;29.77;22.00;;;;;;;5.07;100.00;100257.88;5032709;28;20034;-80
2023/03/04 00:27:15;;;;;;;31.20;21.58;;;;;;;5.40;100.00;100319.16;5032647;28;20491;-80
2023/03/04 00:29:41;;;;;;;30.38;22.50;;;;;;;5.65;100.00;100344.31;5031650;28;20033;-81
2023/03/04 00:32:06;;;;;;;25.83;20.85;;;;;;;5.75;100.00;100352.69;5032656;28;20021;-83
2023/03/04 00:34:31;;;;;;;25.67;20.40;;;;;;;5.80;100.00;100351.81;5032285;28;20492;-79
2023/03/04 00:37:00;;;;;;;30.08;22.30;;;;;;;5.22;100.00;100289.78;5031219;28;22012;-80
2023/03/04 00:39:29;;;;;;;28.27;20.63;;;;;;;5.63;100.00;100360.28;5031569;28;20029;-79
2023/03/04 00:41:55;;;;;;;25.27;19.35;;;;;;;5.27;100.00;100305.72;5031417;28;20056;-81
2023/03/04 00:44:20;;;;;;;27.52;20.95;;;;;;;5.57;100.00;100360.28;5032214;28;20432;-81
2023/03/04 00:46:45;;;;;;;27.25;20.45;;;;;;;5.03;100.00;100268.78;5033010;28;20030;-79
2023/03/04 00:49:11;;;;;;;28.77;21.00;;;;;;;5.60;100.00;100362.81;5032648;28;20499;-75
2023/03/04 00:51:36;;;;;;;28.95;21.75;;;;;;;4.82;100.00;100273.00;5032238;28;20041;-80
2023/03/04 00:54:02;;;;;;;28.42;21.50;;;;;;;5.26;100.00;100322.53;5032731;28;20022;-81
2023/03/04 00:56:28;;;;;;;30.98;22.05;;;;;;;5.28;100.00;100362.84;5032612;28;20026;-80
2023/03/04 00:58:54;;;;;;;33.15;24.17;;;;;;;4.71;100.00;100297.34;5031934;28;20037;-80
2023/03/04 01:01:19;;;;;;;31.65;24.70;;;;;;;4.68;100.00;100287.25;5032085;28;20036;-81
2023/03/04 01:03:45;;;;;;;37.35;28.50;;;;;;;4.76;100.00;100294.00;5032410;28;20033;-80
2023/03/04 01:06:11;;;;;;;41.05;30.42;;;;;;;4.60;100.00;100291.44;5032313;28;20025;-79
2023/03/04 01:08:36;;;;;;;38.03;27.85;;;;;;;5.02;100.00;100350.25;5032163;28;20029;-80
2023/03/04 01:11:02;;;;;;;38.10;29.52;;;;;;;4.94;100.00;100356.97;5030490;28;20417;-81
2023/03/04 01:13:27;;;;;;;42.90;30.63;;;;;;;4.42;100.00;100301.53;5031930;28;20033;-80
2023/03/04 01:15:53;;;;;;;38.17;29.23;;;;;;;4.63;100.00;100304.91;5031617;28;20043;-81
2023/03/04 01:18:18;;;;;;;34.42;26.45;;;;;;;4.92;100.00;100341.00;5030518;28;20416;-80
2023/03/04 01:20:44;;;;;;;34.28;26.92;;;;;;;4.26;100.00;100236.06;5031217;28;20029;-78
2023/03/04 01:23:09;;;;;;;39.92;29.83;;;;;;;4.69;100.00;100342.69;5032618;28;20112;-80
2023/03/04 01:25:35;;;;;;;37.83;27.95;;;;;;;4.81;100.00;100355.28;5032190;28;20041;-81
2023/03/04 01:28:00;;;;;;;37.45;27.52;;;;;;;4.95;100.00;100343.50;5032029;28;20132;-80
2023/03/04 01:30:25;;;;;;;34.83;26.73;;;;;;;5.12;100.00;100353.59;5032005;28;20036;-78
2023/03/04 01:32:51;;;;;;;42.13;29.73;;;;;;;4.83;100.00;100340.97;5031261;28;20037;-79
2023/03/04 01:35:16;;;;;;;38.75;28.38;;;;;;;4.65;100.00;100328.41;5031315;28;20069;-80
2023/03/04 01:37:42;;;;;;;39.15;28.10;;;;;;;4.30;100.00;100290.56;5034250;28;20138;-81
2023/03/04 01:40:08;;;;;;;40.30;30.00;;;;;;;4.71;100.00;100361.16;5036181;28;20495;-82
2023/03/04 01:42:35;;;;;;;41.80;30.20;;;;;;;4.84;100.00;100364.50;5035636;28;20124;-84
2023/03/04 01:45:01;;;;;;;44.38;30.00;;;;;;;4.74;100.00;100356.09;5035581;28;20059;-80
2023/03/04 01:47:29;;;;;;;41.22;28.40;;;;;;;4.48;100.00;100311.59;5035884;28;20112;-80
2023/03/04 01:49:56;;;;;;;38.33;27.05;;;;;;;4.70;100.00;100356.94;5035670;28;20493;-81
2023/03/04 01:52:23;;;;;;;39.88;27.02;;;;;;;4.18;100.00;100262.06;5036093;28;20057;-81
2023/03/04 01:54:48;;;;;;;38.38;27.38;;;;;;;4.69;100.00;100359.44;5032364;28;20044;-80
2023/03/04 01:57:22;;;;;;;39.72;27.67;;;;;;;4.63;100.00;100344.34;5014999;28;20025;-81
2023/03/04 02:00:34;;;;;;;47.55;35.42;;;;;;;4.76;100.00;100353.56;5016005;28;20034;-80
2023/03/04 02:03:18;;;;;;;46.35;33.30;;;;;;;4.75;100.00;100361.97;5032486;28;20045;-81
2023/03/04 02:05:48;;;;;;;45.00;31.95;;;;;;;4.12;100.00;100265.38;5036221;28;20037;-80
2023/03/04 02:08:15;;;;;;;41.92;30.10;;;;;;;3.91;100.00;100262.81;5035255;28;20034;-81
2023/03/04 02:10:42;;;;;;;37.25;26.63;;;;;;;4.63;100.00;100351.88;5035654;28;20079;-79
2023/03/04 02:13:08;;;;;;;37.15;24.83;;;;;;;4.55;100.00;100326.72;5035413;28;20044;-80
2023/03/04 02:15:34;;;;;;;33.88;23.70;;;;;;;4.33;100.00;100305.69;5035558;28;20029;-80
2023/03/04 02:18:00;;;;;;;34.08;24.00;;;;;;;4.63;100.00;100375.41;5035199;28;20034;-81
2023/03/04 02:21:18;;;;;;;32.00;22.08;;;;;;;4.69;100.00;100380.44;5035415;28;20048;-82
2023/03/04 02:23:47;;;;;;;33.78;21.85;;;;;;;4.48;100.00;100365.25;5008031;28;20500;-81
2023/03/04 02:26:21;;;;;;;34.30;25.05;;;;;;;3.97;100.00;100293.00;5035199;28;20025;-79
2023/03/04 02:28:49;;;;;;;31.05;22.77;;;;;;;4.88;100.00;100389.69;5033711;28;20041;-80
2023/03/04 02:31:38;;;;;;;37.22;25.83;;;;;;;4.75;100.00;100377.09;5035536;28;20021;-79
2023/03/04 02:34:16;;;;;;;37.53;25.88;;;;;;;4.11;100.00;100330.78;5034709;28;20040;-80
2023/03/04 02:36:43;;;;;;;42.45;28.20;;;;;;;4.29;100.00;100328.31;5030403;28;20048;-80
2023/03/04 02:39:20;;;;;;;38.00;26.85;;;;;;;4.84;100.00;100382.97;5033496;28;20412;-79
2023/03/04 02:41:47;;;;;;;43.72;29.45;;;;;;;4.58;100.00;100381.22;5035264;28;20024;-79
2023/03/04 02:44:19;;;;;;;42.13;26.92;;;;;;;4.40;100.00;100387.06;5033843;28;20033;-79
2023/03/04 02:46:46;;;;;;;38.72;26.50;;;;;;;4.25;100.00;100327.47;5034218;28;20044;-80
2023/03/04 02:49:11;;;;;;;39.60;26.77;;;;;;;4.44;100.00;100348.47;5035030;28;20037;-80
2023/03/04 02:51:37;;;;;;;34.30;25.35;;;;;;;4.43;100.00;100339.25;5035132;28;20032;-79
2023/03/04 02:54:03;;;;;;;38.42;26.38;;;;;;;4.59;100.00;100393.00;5034393;28;20037;-80
2023/03/04 02:56:29;;;;;;;38.78;28.38;;;;;;;4.27;100.00;100328.31;5034366;28;20029;-80
2023/03/04 02:58:54;;;;;;;36.78;27.20;;;;;;;4.46;100.00;100346.00;5034355;28;20045;-79
2023/03/04 03:01:20;;;;;;;39.13;27.00;;;;;;;4.90;100.00;100370.41;5033566;28;20468;-82
2023/03/04 03:03:45;;;;;;;37.05;27.17;;;;;;;4.78;100.00;100372.91;5033206;28;20029;-81
2023/03/04 03:06:11;;;;;;;37.38;27.95;;;;;;;4.31;100.00;100332.53;5034146;28;20099;-81
2023/03/04 03:08:36;;;;;;;37.78;27.58;;;;;;;4.13;100.00;100324.06;5034580;28;20116;-82
2023/03/04 03:11:01;;;;;;;38.75;26.20;;;;;;;3.98;100.00;100316.47;5033042;28;20021;-81
2023/03/04 03:13:27;;;;;;;41.80;27.63;;;;;;;3.50;100.00;100319.59;5033972;28;20029;-81
2023/03/04 03:15:53;;;;;;;39.83;25.95;;;;;;;3.86;100.00;100311.41;5045445;28;20053;-78
2023/03/04 03:18:18;;;;;;;41.38;29.05;;;;;;;3.68;100.00;100317.19;5032614;28;20087;-81
2023/03/04 03:20:44;;;;;;;41.08;27.83;;;;;;;3.87;100.00;100329.00;5036596;28;20037;-80
2023/03/04 03:23:10;;;;;;;42.58;29.48;;;;;;;4.17;100.00;100348.41;5052707;28;20029;-78
2023/03/04 03:25:35;;;;;;;46.78;30.70;;;;;;;4.07;100.00;100362.63;5053388;28;20120;-80
2023/03/04 03:28:01;;;;;;;45.97;30.52;;;;;;;4.19;100.00;100372.75;5052311;28;20483;-80
2023/03/04 03:30:26;;;;;;;41.28;29.23;;;;;;;4.44;100.00;100362.75;5053471;28;20094;-80
2023/03/04 03:32:51;;;;;;;54.53;32.72;;;;;;;4.41;100.00;100378.69;5052014;28;20025;-80
2023/03/04 03:35:17;;;;;;;48.17;32.00;;;;;;;4.56;100.00;100367.78;5053497;28;20017;-81
2023/03/04 03:37:42;;;;;;;53.47;34.85;;;;;;;4.45;100.00;100365.28;5052122;28;20048;-81
2023/03/04 03:40:09;;;;;;;49.70;33.17;;;;;;;4.19;100.00;100293.91;5052465;28;20115;-81
2023/03/04 03:42:34;;;;;;;55.53;34.05;;;;;;;4.03;100.00;100295.53;5053671;28;20032;-82
2023/03/04 03:45:00;;;;;;;47.83;32.05;;;;;;;4.45;100.00;100327.53;5053683;28;20032;-80
2023/03/04 03:47:25;;;;;;;47.47;32.80;;;;;;;4.60;100.00;100341.78;5053527;28;20044;-77
2023/03/04 03:49:50;;;;;;;49.28;33.47;;;;;;;4.66;100.00;100334.25;5054036;28;20056;-81
2023/03/04 03:52:16;;;;;;;50.55;34.05;;;;;;;4.47;100.00;100352.69;5045557;28;20036;-80
2023/03/04 03:54:42;;;;;;;46.70;31.58;;;;;;;4.61;100.00;100361.13;5032906;28;20147;-79
2023/03/04 03:57:07;;;;;;;46.92;32.50;;;;;;;4.54;100.00;100357.72;5052352;28;20537;-80
2023/03/04 03:59:33;;;;;;;48.70;34.03;;;;;;;4.79;100.00;100409.00;5053047;28;20108;-76
2023/03/04 04:01:58;;;;;;;48.90;33.33;;;;;;;4.63;100.00;100385.47;5050069;28;20025;-82
2023/03/04 04:04:23;;;;;;;49.53;33.15;;;;;;;4.55;100.00;100382.09;5033011;28;20108;-83
2023/03/04 04:06:49;;;;;;;48.92;32.58;;;;;;;4.71;100.00;100396.41;5031854;28;20051;-81
2023/03/04 04:09:14;;;;;;;48.72;32.97;;;;;;;4.70;100.00;100407.28;5033317;28;20030;-83
2023/03/04 04:11:40;;;;;;;48.22;32.80;;;;;;;4.72;100.00;100417.34;5032604;28;20025;-82
2023/03/04 04:14:05;;;;;;;46.33;31.80;;;;;;;4.99;100.00;100413.22;5035060;28;20119;-78
2023/03/04 04:16:30;;;;;;;47.47;33.38;;;;;;;4.80;100.00;100410.66;5051822;28;20494;-79
2023/03/04 04:18:56;;;;;;;47.72;32.15;;;;;;;4.35;100.00;100331.69;5052520;28;20041;-80
2023/03/04 04:21:21;;;;;;;45.10;30.60;;;;;;;4.35;100.00;100356.00;5052011;28;20128;-81
2023/03/04 04:23:47;;;;;;;42.03;29.38;;;;;;;4.33;100.00;100352.66;5046154;28;20496;-81
2023/03/04 04:26:12;;;;;;;42.15;29.60;;;;;;;4.28;100.00;100375.28;5031964;28;20032;-82
2023/03/04 04:28:38;;;;;;;43.35;30.05;;;;;;;4.65;100.00;100410.63;5031555;28;20058;-82
2023/03/04 04:31:07;;;;;;;45.60;30.35;;;;;;;4.59;100.00;100406.44;5032913;28;20071;-81
2023/03/04 04:33:32;;;;;;;44.35;29.92;;;;;;;4.23;100.00;100350.94;5032100;28;20022;-80
2023/03/04 04:35:57;;;;;;;43.95;30.40;;;;;;;4.66;100.00;100417.34;5032662;28;20028;-81
2023/03/04 04:38:28;;;;;;;46.40;30.38;;;;;;;4.70;100.00;100402.25;5032631;28;20397;-81
2023/03/04 04:40:57;;;;;;;37.33;24.17;;;;;;;4.25;100.00;100346.75;5033088;28;20033;-82
2023/03/04 04:43:22;;;;;;;48.95;34.17;;;;;;;4.64;100.00;100408.94;5031495;28;20415;-81
2023/03/04 04:45:48;;;;;;;48.55;34.50;;;;;;;4.65;100.00;100418.19;5030319;28;20048;-82
2023/03/04 04:48:13;;;;;;;52.10;34.88;;;;;;;4.44;100.00;100363.56;5030701;28;20029;-82
2023/03/04 04:50:40;;;;;;;53.33;37.33;;;;;;;4.78;100.00;100405.63;5031477;28;20079;-81
2023/03/04 04:53:05;;;;;;;53.75;37.60;;;;;;;4.50;100.00;100357.75;5031347;28;20451;-81
2023/03/04 04:55:30;;;;;;;57.13;39.53;;;;;;;4.98;100.00;100423.28;5031122;28;20025;-76
2023/03/04 04:57:56;;;;;;;59.08;42.67;;;;;;;4.82;100.00;100419.91;5030287;28;20033;-81
2023/03/04 05:00:21;;;;;;;61.78;40.10;;;;;;;4.68;100.00;100408.97;5032235;28;20026;-81
2023/03/04 05:02:47;;;;;;;57.58;37.40;;;;;;;4.60;100.00;100415.66;5031937;28;20804;-79
2023/03/04 05:05:12;;;;;;;59.88;38.40;;;;;;;4.88;100.00;100399.78;5030768;28;20037;-81
2023/03/04 05:07:38;;;;;;;59.22;37.47;;;;;;;4.46;100.00;100351.84;5031018;28;20030;-81
2023/03/04 05:10:04;;;;;;;58.08;37.90;;;;;;;4.79;100.00;100406.47;5030963;28;20401;-79
2023/03/04 05:12:30;;;;;;;61.63;39.65;;;;;;;4.11;100.00;100303.94;5031590;28;20037;-80
2023/03/04 05:14:56;;;;;;;53.85;36.22;;;;;;;4.93;100.00;100408.16;5031537;28;20599;-80
2023/03/04 05:17:21;;;;;;;55.15;37.55;;;;;;;5.02;100.00;100402.31;5038129;28;20033;-81
2023/03/04 05:19:46;;;;;;;56.17;36.30;;;;;;;5.05;100.00;100413.22;5030576;28;20030;-79
2023/03/04 05:22:12;;;;;;;53.67;35.85;;;;;;;5.09;100.00;100406.53;5031875;28;20038;-83
2023/03/04 05:24:37;;;;;;;57.60;36.80;;;;;;;5.13;100.00;100408.22;5031884;28;20060;-81
2023/03/04 05:27:03;;;;;;;52.63;34.90;;;;;;;4.85;100.00;100356.94;5030870;28;20029;-77
2023/03/04 05:29:28;;;;;;;55.25;35.58;;;;;;;5.02;100.00;100418.28;5031167;28;20033;-80
2023/03/04 05:31:54;;;;;;;52.58;35.38;;;;;;;5.39;100.00;100424.16;5030660;28;20480;-80
2023/03/04 05:34:19;;;;;;;54.53;36.45;;;;;;;5.00;100.00;100363.69;5031366;28;20128;-79
2023/03/04 05:36:44;;;;;;;56.47;38.33;;;;;;;5.04;100.00;100376.28;5028036;28;20458;-81
2023/03/04 05:39:10;;;;;;;62.17;43.22;;;;;;;4.85;100.00;100382.13;5048010;28;20045;-82
2023/03/04 05:41:36;;;;;;;55.25;37.28;;;;;;;4.95;100.00;100434.19;5029970;28;20037;-81
2023/03/04 05:44:01;;;;;;;58.67;39.10;;;;;;;4.99;100.00;100442.63;5031870;28;20029;-83
2023/03/04 05:46:27;;;;;;;70.53;47.63;;;;;;;4.65;100.00;100328.41;5031486;28;20069;-83
2023/03/04 05:48:53;;;;;;;78.07;52.10;;;;;;;4.78;100.00;100370.38;5031269;28;20108;-83
2023/03/04 05:51:19;;;;;;;61.38;44.05;;;;;;;5.25;100.00;100424.16;5031650;28;20036;-83
2023/03/04 05:53:45;;;;;;;74.90;47.78;;;;;;;4.87;100.00;100367.03;5030547;28;20025;-81
2023/03/04 05:56:13;;;;;;;79.85;49.53;;;;;;;4.64;100.00;100339.28;5030461;28;20048;-81
2023/03/04 05:58:39;;;;;;;92.82;57.60;;;;;;;5.25;100.00;100423.31;5031763;28;20076;-82
2023/03/04 06:01:04;;;;;;;59.75;39.53;;;;;;;5.31;100.00;100417.47;5032520;28;20065;-80
2023/03/04 06:03:30;;;;;;;51.25;34.05;;;;;;;5.17;100.00;100377.97;5030769;28;20029;-80
2023/03/04 06:05:56;;;;;;;43.85;32.80;;;;;;;5.57;100.00;100446.84;5030733;28;20111;-81
2023/03/04 06:08:22;;;;;;;50.15;35.40;;;;;;;5.73;100.00;100445.16;5030641;28;20052;-82
2023/03/04 06:10:50;;;;;;;107.15;75.80;;;;;;;5.35;100.00;100389.72;5030658;28;20034;-80
2023/03/04 06:13:16;;;;;;;72.72;51.00;;;;;;;5.60;100.00;100444.34;5021157;28;20028;-80
2023/03/04 06:15:41;;;;;;;63.20;43.20;;;;;;;5.50;100.00;100398.97;5030197;28;20025;-80
2023/03/04 06:18:07;;;;;;;59.95;42.38;;;;;;;5.79;100.00;100447.66;5044522;28;20104;-80
2023/03/04 06:20:32;;;;;;;62.38;37.28;;;;;;;5.52;100.00;100428.38;5029650;28;20037;-77
2023/03/04 06:22:58;;;;;;;59.33;36.90;;;;;;;5.41;100.00;100429.22;5031747;28;20021;-77
2023/03/04 06:25:24;;;;;;;68.85;43.80;;;;;;;5.71;100.00;100447.69;5044398;28;20110;-81
2023/03/04 06:27:49;;;;;;;64.43;39.28;;;;;;;6.27;100.00;100434.16;5052385;28;20057;-77
2023/03/04 06:30:15;;;;;;;71.70;45.95;;;;;;;5.59;100.00;100404.81;5034822;28;20061;-81
2023/03/04 06:32:43;;;;;;;76.18;42.17;;;;;;;6.00;100.00;100458.59;5033359;28;20477;-80
2023/03/04 06:35:10;;;;;;;71.53;42.65;;;;;;;5.86;100.00;100454.44;5034612;28;20025;-76
2023/03/04 06:37:35;;;;;;;70.47;39.42;;;;;;;5.81;100.00;100451.88;5035123;28;20191;-75
2023/03/04 06:40:02;;;;;;;68.28;39.95;;;;;;;5.50;100.00;100396.44;5033526;28;20072;-78
2023/03/04 06:42:27;;;;;;;68.72;40.25;;;;;;;5.80;100.00;100450.19;5041237;28;20036;-84
2023/03/04 06:44:53;;;;;;;71.18;38.75;;;;;;;6.00;100.00;100453.56;5054484;28;20029;-80
2023/03/04 06:47:18;;;;;;;69.47;39.80;;;;;;;5.85;100.00;100462.84;5052718;28;20124;-80
2023/03/04 06:49:44;;;;;;;69.90;41.13;;;;;;;5.71;100.00;100396.41;5044428;28;20812;-86
2023/03/04 06:52:11;;;;;;;71.95;43.47;;;;;;;6.08;100.00;100456.09;5044626;28;20037;-77
2023/03/04 06:54:37;;;;;;;66.93;42.08;;;;;;;6.12;100.00;100462.78;5033622;28;20029;-79
2023/03/04 06:57:03;;;;;;;65.15;40.60;;;;;;;6.03;100.00;100430.84;5033340;28;20120;-78
2023/03/04 06:59:28;;;;;;;64.88;40.92;;;;;;;5.81;100.00;100396.38;5033044;28;20117;-80
2023/03/04 07:01:54;;;;;;;68.03;41.17;;;;;;;6.16;100.00;100424.06;5031705;28;20106;-79
2023/03/04 07:04:21;;;;;;;64.20;38.42;;;;;;;6.20;100.00;100450.97;5025414;28;20507;-78
2023/03/04 07:06:47;;;;;;;62.17;38.95;;;;;;;6.23;100.00;100450.13;5013324;28;20044;-77
2023/03/04 07:09:12;;;;;;;63.10;38.17;;;;;;;6.23;100.00;100409.75;5014221;28;20034;-75
2023/03/04 07:11:38;;;;;;;62.30;39.47;;;;;;;6.03;100.00;100404.78;5012830;28;20030;-77
2023/03/04 07:14:03;;;;;;;60.80;39.75;;;;;;;6.17;100.00;100447.63;5012788;28;20415;-76
2023/03/04 07:16:29;;;;;;;66.85;39.92;;;;;;;6.45;100.00;100407.16;5014057;28;20041;-76
2023/03/04 07:18:54;;;;;;;66.63;40.47;;;;;;;6.04;100.00;100419.91;5027257;28;20037;-77
2023/03/04 07:21:20;;;;;;;67.40;41.13;;;;;;;6.62;100.00;100444.94;5031649;28;20033;-77
2023/03/04 07:23:45;;;;;;;79.07;49.38;;;;;;;6.37;100.00;100393.72;5033060;28;20103;-77
2023/03/04 07:26:11;;;;;;;87.57;54.22;;;;;;;6.61;100.00;100398.66;5032681;28;20140;-75
2023/03/04 07:28:37;;;;;;;83.90;54.28;;;;;;;6.48;100.00;100391.97;5033427;28;20033;-77
2023/03/04 07:31:20;;;;;;;83.88;53.63;;;;;;;6.47;100.00;100429.88;5032739;28;20043;-80
2023/03/04 07:33:49;;;;;;;77.63;54.45;;;;;;;6.44;100.00;100392.00;5031659;28;20064;-84
2023/03/04 07:36:15;;;;;;;96.55;68.28;;;;;;;6.50;100.00;100439.94;5032874;28;20045;-78
2023/03/04 07:38:45;;;;;;;155.10;118.60;;;;;;;6.22;100.00;100368.53;5033505;28;20116;-77
2023/03/04 07:41:11;;;;;;;177.82;138.20;;;;;;;6.89;100.00;100435.53;5032571;28;20175;-77
2023/03/04 07:43:36;;;;;;;155.50;115.55;;;;;;;7.33;100.00;100430.19;5044343;28;20111;-75
2023/03/04 07:46:02;;;;;;;156.45;113.32;;;;;;;7.03;100.00;100439.69;5031415;28;20026;-79
2023/03/04 07:48:27;;;;;;;149.00;106.45;;;;;;;6.19;100.00;100428.28;5031474;28;20099;-79
2023/03/04 07:51:10;;;;;;;152.02;104.38;;;;;;;6.41;100.00;100443.34;5031697;28;20562;-79
2023/03/04 07:53:37;;;;;;;146.70;103.43;;;;;;;6.82;100.00;100426.31;5012956;28;20080;-80
2023/03/04 07:56:04;;;;;;;149.45;104.05;;;;;;;6.25;100.00;100386.19;5030708;28;20034;-82
2023/03/04 07:58:30;;;;;;;109.65;75.35;;;;;;;9.23;100.00;100422.09;5032129;28;20041;-76
2023/03/04 08:00:55;;;;;;;124.55;85.47;;;;;;;8.99;100.00;100423.31;5032015;28;20086;-74
2023/03/04 08:03:21;;;;;;;132.50;84.32;;;;;;;9.31;100.00;100394.91;5032321;28;20156;-80
2023/03/04 08:05:46;;;;;;;129.05;80.22;;;;;;;9.74;100.00;100436.47;5013178;28;20038;-78
2023/03/04 08:08:12;;;;;;;116.22;76.18;;;;;;;9.76;100.00;100433.91;5011994;28;20033;-76
2023/03/04 08:10:38;;;;;;;108.53;74.90;;;;;;;8.99;100.00;100435.16;5012515;28;20184;-72
2023/03/04 08:13:05;;;;;;;108.20;74.63;;;;;;;8.07;100.00;100436.25;5012996;28;20103;-77
2023/03/04 08:15:32;;;;;;;100.78;71.68;;;;;;;8.91;100.00;100343.13;5011520;28;20026;-74
2023/03/04 08:17:57;;;;;;;106.55;74.45;;;;;;;8.44;100.00;100420.66;5012828;28;20044;-76
2023/03/04 08:20:23;;;;;;;109.72;76.28;;;;;;;7.84;100.00;100368.16;5010996;28;20034;-75
2023/03/04 08:22:50;;;;;;;102.05;71.78;;;;;;;8.73;100.00;100413.50;5011377;28;20034;-77
2023/03/04 08:25:15;;;;;;;100.07;68.75;;;;;;;9.43;100.00;100408.22;5011404;28;20038;-76
2023/03/04 08:27:43;;;;;;;95.65;64.82;;;;;;;9.29;100.00;100366.19;5011383;28;20497;-76
2023/03/04 08:30:09;;;;;;;85.22;60.13;;;;;;;9.68;100.00;100380.72;5014514;28;20049;-77
2023/03/04 08:32:34;;;;;;;82.50;57.72;;;;;;;9.42;100.00;100370.19;5031140;28;20091;-78
2023/03/04 08:35:01;;;;;;;78.78;53.95;;;;;;;9.59;100.00;100417.25;5030708;28;20029;-80
2023/03/04 08:37:28;;;;;;;57.55;40.55;;;;;;;8.79;100.00;100426.97;5027685;28;20046;-77
2023/03/04 08:39:53;;;;;;;59.03;39.85;;;;;;;9.12;100.00;100414.66;5032308;28;20052;-77
2023/03/04 08:42:19;;;;;;;54.13;36.75;;;;;;;8.62;100.00;100379.88;5030703;28;20120;-75
2023/03/04 08:44:44;;;;;;;58.00;39.65;;;;;;;9.50;100.00;100353.13;5031341;28;20056;-75
2023/03/04 08:47:11;;;;;;;66.80;42.95;;;;;;;8.93;100.00;100399.72;5031503;28;20025;-83
2023/03/04 08:49:36;;;;;;;69.28;46.42;;;;;;;10.27;100.00;100407.56;5031933;28;20037;-77
2023/03/04 08:52:02;;;;;;;61.88;42.10;;;;;;;9.38;100.00;100343.19;5030407;28;20045;-73
2023/03/04 08:54:28;;;;;;;66.50;42.67;;;;;;;9.76;100.00;100357.75;5030791;28;20018;-75
2023/03/04 08:56:53;;;;;;;57.13;39.65;;;;;;;10.55;100.00;100390.91;5030078;28;20056;-77
2023/03/04 08:59:18;;;;;;;55.10;35.25;;;;;;;10.84;100.00;100373.28;5033387;28;20128;-77
2023/03/04 09:01:44;;;;;;;53.88;39.92;;;;;;;9.12;100.00;100348.72;5022755;28;20037;-76
2023/03/04 09:04:09;;;;;;;54.17;36.08;;;;;;;8.69;100.00;100335.84;5011577;28;20136;-79
2023/03/04 09:06:35;;;;;;;45.67;33.53;;;;;;;8.16;100.00;100342.47;5023120;28;20044;-78
2023/03/04 09:09:01;;;;;;;49.42;35.90;;;;;;;8.93;100.00;100381.97;5030888;28;20029;-78
2023/03/04 09:11:27;;;;;;;45.80;31.85;;;;;;;8.85;100.00;100376.19;5030732;28;20033;-80
2023/03/04 09:13:52;;;;;;;48.22;35.08;;;;;;;8.29;100.00;100387.06;5029846;28;20030;-80
2023/03/04 09:16:18;;;;;;;41.20;30.95;;;;;;;8.90;100.00;100379.47;5031541;28;20117;-78
2023/03/04 09:18:43;;;;;;;43.92;33.40;;;;;;;8.90;100.00;100390.47;5031620;28;20128;-78
2023/03/04 09:21:09;;;;;;;48.25;35.40;;;;;;;9.12;100.00;100380.84;5030544;28;20026;-77
2023/03/04 09:23:35;;;;;;;48.13;34.50;;;;;;;8.86;100.00;100322.06;5031276;28;20040;-78
2023/03/04 09:26:20;;;;;;;50.10;33.42;;;;;;;8.79;100.00;100376.28;5018611;28;20087;-79
2023/03/04 09:28:52;;;;;;;43.20;33.63;;;;;;;8.22;100.00;100322.97;5010817;28;20589;-79
2023/03/04 09:31:18;;;;;;;46.17;33.28;;;;;;;8.56;100.00;100374.91;5026369;28;20038;-79
2023/03/04 09:33:44;;;;;;;44.67;33.38;;;;;;;8.85;100.00;100384.63;5030150;28;20026;-80
2023/03/04 09:36:11;;;;;;;46.28;32.35;;;;;;;9.09;100.00;100304.81;5029972;28;20031;-80
2023/03/04 09:38:39;;;;;;;52.42;36.10;;;;;;;9.23;100.00;100323.19;5030496;28;20150;-80
2023/03/04 09:41:08;;;;;;;47.83;32.72;;;;;;;9.26;100.00;100374.69;5029489;28;20072;-80
2023/03/04 09:43:34;;;;;;;47.65;34.20;;;;;;;9.27;100.00;100360.31;5040444;28;20032;-76
2023/03/04 09:46:17;;;;;;;48.65;33.80;;;;;;;9.13;100.00;100340.22;5026801;28;20065;-74
2023/03/04 09:48:49;;;;;;;48.00;35.67;;;;;;;9.16;100.00;100368.09;5026761;28;20029;-74
2023/03/04 09:51:30;;;;;;;;;;;;;;;9.67;100.00;100368.88;5030610;28;20103;-74
2023/03/04 09:54:20;;;;;;;46.22;33.13;;;;;;;10.26;100.00;100355.09;5029452;28;19913;-71
2023/03/04 09:56:45;;;;;;;46.20;34.75;;;;;;;9.58;100.00;100361.47;5012354;28;20029;-74
2023/03/04 09:59:28;;;;;;;41.15;30.88;;;;;;;9.76;100.00;100350.97;5014173;28;20033;-74
2023/03/04 10:02:16;;;;;;;41.70;28.80;;;;;;;9.56;100.00;100350.50;5015446;28;20606;-75
2023/03/04 10:04:58;;;;;;;37.70;28.38;;;;;;;9.45;100.00;100296.53;5015415;28;20508;-74
2023/03/04 10:07:29;;;;;;;47.92;34.55;;;;;;;9.91;100.00;100355.75;5014001;28;20049;-74
2023/03/04 10:10:02;;;;;;;37.10;26.60;;;;;;;10.27;100.00;100339.81;5014065;28;20042;-75
2023/03/04 10:12:30;;;;;;;36.58;27.38;;;;;;;9.90;100.00;100338.00;5015373;28;20030;-76
2023/03/04 10:15:13;;;;;;;36.13;26.67;;;;;;;10.59;100.00;100323.00;5025115;28;20079;-75
2023/03/04 10:17:43;;;;;;;31.77;24.15;;;;;;;10.19;100.00;100320.50;5033537;28;20052;-75
2023/03/04 10:20:14;;;;;;;29.90;22.92;;;;;;;10.02;100.00;100317.44;5033125;28;20025;-74
2023/03/04 10:22:43;;;;;;;31.85;23.75;;;;;;;10.22;100.00;100320.44;5032670;28;21970;-75
2023/03/04 10:25:21;;;;;;;35.22;22.90;;;;;;;9.93;100.00;100256.66;5034564;28;20044;-75
2023/03/04 10:28:01;;;;;;;29.92;22.95;;;;;;;10.62;100.00;100295.81;5034453;28;20480;-75
2023/03/04 10:30:47;;;;;;;29.20;23.08;;;;;;;10.24;100.00;100306.00;5040971;28;20033;-75
2023/03/04 10:33:16;;;;;;;30.40;22.88;;;;;;;10.70;100.00;100311.72;5053142;28;20167;-75
2023/03/04 10:35:52;;;;;;;33.22;24.63;;;;;;;10.16;100.00;100307.88;5054529;28;20044;-76
2023/03/04 10:38:20;;;;;;;31.02;23.77;;;;;;;10.39;100.00;100293.81;5041964;28;20136;-74
2023/03/04 10:40:46;;;;;;;35.67;27.40;;;;;;;9.60;100.00;100255.66;5033023;28;20053;-78
2023/03/04 10:43:19;;;;;;;31.67;25.98;;;;;;;9.71;100.00;100258.81;5031675;28;20415;-75
2023/03/04 10:45:45;;;;;;;30.77;24.92;;;;;;;9.88;100.00;100233.94;4665587;28;10000809;-76
2023/03/04 10:48:43;;;;;;;30.17;22.40;;;;;;;10.16;100.00;100275.66;5010734;28;20119;-73
2023/03/04 10:51:18;;;;;;;32.58;24.80;;;;;;;10.50;100.00;100269.84;5006784;28;20431;-73
2023/03/04 10:53:47;;;;;;;29.13;22.90;;;;;;;10.13;100.00;100222.41;5011026;28;20030;-75
2023/03/04 10:56:33;;;;;;;28.73;22.88;;;;;;;10.03;100.00;100265.78;5011312;28;20040;-74
2023/03/04 10:59:24;;;;;;;33.55;25.30;;;;;;;9.63;100.00;100270.81;5009897;28;20068;-73
2023/03/04 11:01:50;;;;;;;34.58;25.80;;;;;;;9.64;100.00;100269.97;5010859;28;20077;-74
2023/03/04 11:04:24;;;;;;;36.38;26.98;;;;;;;9.91;100.00;100215.25;5015394;28;20044;-74
2023/03/04 11:06:50;;;;;;;35.28;26.73;;;;;;;9.45;100.00;100200.13;5029969;28;20472;-74
2023/03/04 11:09:28;;;;;;;33.58;27.02;;;;;;;10.21;100.00;100243.38;5038455;28;20041;-74